sensor_id;sensor_type;location;lat;lon;timestamp;temperature;humidity
76040;SHT30;64736;50.462;4.850;2022-11-04T00:01:46;9.19;89.93
76040;SHT30;64736;50.462;4.850;2022-11-04T00:04:13;9.18;89.81
76040;SHT30;64736;50.462;4.850;2022-11-04T00:06:40;9.19;90.31
76040;SHT30;64736;50.462;4.850;2022-11-04T00:09:07;9.18;90.13
76040;SHT30;64736;50.462;4.850;2022-11-04T00:11:33;9.15;90.13
76040;SHT30;64736;50.462;4.850;2022-11-04T00:14:18;9.16;90.01
76040;SHT30;64736;50.462;4.850;2022-11-04T00:16:45;9.15;90.04
76040;SHT30;64736;50.462;4.850;2022-11-04T00:19:29;9.14;90.12
76040;SHT30;64736;50.462;4.850;2022-11-04T00:22:16;9.12;90.25
76040;SHT30;64736;50.462;4.850;2022-11-04T00:25:00;9.12;89.60
76040;SHT30;64736;50.462;4.850;2022-11-04T00:27:44;9.07;89.90
76040;SHT30;64736;50.462;4.850;2022-11-04T00:30:29;9.08;89.43
76040;SHT30;64736;50.462;4.850;2022-11-04T00:32:55;9.09;89.33
76040;SHT30;64736;50.462;4.850;2022-11-04T00:35:39;9.07;89.61
76040;SHT30;64736;50.462;4.850;2022-11-04T00:38:05;9.02;89.60
76040;SHT30;64736;50.462;4.850;2022-11-04T00:40:31;9.01;89.89
76040;SHT30;64736;50.462;4.850;2022-11-04T00:42:57;9.07;89.42
76040;SHT30;64736;50.462;4.850;2022-11-04T00:45:22;8.98;89.23
76040;SHT30;64736;50.462;4.850;2022-11-04T00:47:48;8.98;89.63
76040;SHT30;64736;50.462;4.850;2022-11-04T00:50:14;8.99;89.09
76040;SHT30;64736;50.462;4.850;2022-11-04T00:52:40;8.93;89.29
76040;SHT30;64736;50.462;4.850;2022-11-04T00:55:06;8.92;89.45
76040;SHT30;64736;50.462;4.850;2022-11-04T00:57:32;8.91;89.57
76040;SHT30;64736;50.462;4.850;2022-11-04T00:59:58;8.82;89.33
76040;SHT30;64736;50.462;4.850;2022-11-04T01:02:24;8.87;89.46
76040;SHT30;64736;50.462;4.850;2022-11-04T01:04:51;8.82;89.60
76040;SHT30;64736;50.462;4.850;2022-11-04T01:07:17;8.80;90.24
76040;SHT30;64736;50.462;4.850;2022-11-04T01:09:43;8.78;90.03
76040;SHT30;64736;50.462;4.850;2022-11-04T01:12:08;8.78;89.71
76040;SHT30;64736;50.462;4.850;2022-11-04T01:14:34;8.80;89.98
76040;SHT30;64736;50.462;4.850;2022-11-04T01:17:00;8.78;89.79
76040;SHT30;64736;50.462;4.850;2022-11-04T01:19:25;8.75;90.39
76040;SHT30;64736;50.462;4.850;2022-11-04T01:21:51;8.82;89.67
76040;SHT30;64736;50.462;4.850;2022-11-04T01:24:18;8.81;89.81
76040;SHT30;64736;50.462;4.850;2022-11-04T01:26:43;8.85;89.44
76040;SHT30;64736;50.462;4.850;2022-11-04T01:29:09;8.85;89.58
76040;SHT30;64736;50.462;4.850;2022-11-04T01:31:35;8.81;89.59
76040;SHT30;64736;50.462;4.850;2022-11-04T01:34:01;8.82;89.40
76040;SHT30;64736;50.462;4.850;2022-11-04T01:36:27;8.82;90.20
76040;SHT30;64736;50.462;4.850;2022-11-04T01:38:54;8.78;89.81
76040;SHT30;64736;50.462;4.850;2022-11-04T01:41:28;8.75;90.17
76040;SHT30;64736;50.462;4.850;2022-11-04T01:43:59;8.75;89.77
76040;SHT30;64736;50.462;4.850;2022-11-04T01:46:41;8.77;89.95
76040;SHT30;64736;50.462;4.850;2022-11-04T01:51:39;8.80;89.62
76040;SHT30;64736;50.462;4.850;2022-11-04T01:54:07;8.87;89.62
76040;SHT30;64736;50.462;4.850;2022-11-04T01:56:33;8.95;89.06
76040;SHT30;64736;50.462;4.850;2022-11-04T01:59:04;9.05;89.16
76040;SHT30;64736;50.462;4.850;2022-11-04T02:01:33;9.14;88.59
76040;SHT30;64736;50.462;4.850;2022-11-04T02:04:00;9.20;88.29
76040;SHT30;64736;50.462;4.850;2022-11-04T02:06:46;9.26;88.12
76040;SHT30;64736;50.462;4.850;2022-11-04T02:09:13;9.33;88.06
76040;SHT30;64736;50.462;4.850;2022-11-04T02:11:40;9.32;87.92
76040;SHT30;64736;50.462;4.850;2022-11-04T02:14:24;9.32;88.47
76040;SHT30;64736;50.462;4.850;2022-11-04T02:16:53;9.33;88.70
76040;SHT30;64736;50.462;4.850;2022-11-04T02:19:39;9.32;88.28
76040;SHT30;64736;50.462;4.850;2022-11-04T02:30:37;9.20;89.01
76040;SHT30;64736;50.462;4.850;2022-11-04T02:38:35;9.07;89.29
76040;SHT30;64736;50.462;4.850;2022-11-04T02:44:01;8.97;90.03
76040;SHT30;64736;50.462;4.850;2022-11-04T02:46:35;8.98;89.85
76040;SHT30;64736;50.462;4.850;2022-11-04T02:54:43;8.89;90.02
76040;SHT30;64736;50.462;4.850;2022-11-04T02:57:20;8.93;89.71
76040;SHT30;64736;50.462;4.850;2022-11-04T02:59:52;8.89;89.82
76040;SHT30;64736;50.462;4.850;2022-11-04T03:02:54;8.82;90.25
76040;SHT30;64736;50.462;4.850;2022-11-04T03:05:29;8.88;90.44
76040;SHT30;64736;50.462;4.850;2022-11-04T03:08:04;8.91;90.06
76040;SHT30;64736;50.462;4.850;2022-11-04T03:10:40;9.01;89.57
76040;SHT30;64736;50.462;4.850;2022-11-04T03:13:14;8.95;89.90
76040;SHT30;64736;50.462;4.850;2022-11-04T03:15:51;9.23;89.29
76040;SHT30;64736;50.462;4.850;2022-11-04T03:18:25;9.33;88.16
76040;SHT30;64736;50.462;4.850;2022-11-04T03:20:57;9.35;88.55
76040;SHT30;64736;50.462;4.850;2022-11-04T03:23:26;9.46;88.20
76040;SHT30;64736;50.462;4.850;2022-11-04T03:25:57;9.54;87.54
76040;SHT30;64736;50.462;4.850;2022-11-04T03:31:24;9.63;87.30
76040;SHT30;64736;50.462;4.850;2022-11-04T03:33:54;9.66;88.11
76040;SHT30;64736;50.462;4.850;2022-11-04T03:36:21;9.70;87.16
76040;SHT30;64736;50.462;4.850;2022-11-04T03:38:49;9.54;87.87
76040;SHT30;64736;50.462;4.850;2022-11-04T03:41:35;9.74;88.04
76040;SHT30;64736;50.462;4.850;2022-11-04T03:44:03;9.60;87.33
76040;SHT30;64736;50.462;4.850;2022-11-04T03:46:29;9.39;88.30
76040;SHT30;64736;50.462;4.850;2022-11-04T03:48:56;9.67;87.40
76040;SHT30;64736;50.462;4.850;2022-11-04T03:51:22;9.73;87.52
76040;SHT30;64736;50.462;4.850;2022-11-04T03:53:48;9.77;87.68
76040;SHT30;64736;50.462;4.850;2022-11-04T03:59:32;9.80;86.93
76040;SHT30;64736;50.462;4.850;2022-11-04T04:02:28;9.88;87.01
76040;SHT30;64736;50.462;4.850;2022-11-04T04:05:20;9.85;87.60
76040;SHT30;64736;50.462;4.850;2022-11-04T04:08:00;9.91;86.77
76040;SHT30;64736;50.462;4.850;2022-11-04T04:13:38;9.94;86.48
76040;SHT30;64736;50.462;4.850;2022-11-04T04:16:43;9.87;87.16
76040;SHT30;64736;50.462;4.850;2022-11-04T04:19:13;9.85;86.73
76040;SHT30;64736;50.462;4.850;2022-11-04T04:24:12;9.85;86.45
76040;SHT30;64736;50.462;4.850;2022-11-04T04:26:59;9.91;86.62
76040;SHT30;64736;50.462;4.850;2022-11-04T04:29:44;9.71;87.68
76040;SHT30;64736;50.462;4.850;2022-11-04T04:32:12;9.80;87.87
76040;SHT30;64736;50.462;4.850;2022-11-04T04:34:39;9.85;87.12
76040;SHT30;64736;50.462;4.850;2022-11-04T04:37:24;9.78;86.73
76040;SHT30;64736;50.462;4.850;2022-11-04T04:39:58;9.87;86.51
76040;SHT30;64736;50.462;4.850;2022-11-04T04:42:43;10.01;86.03
76040;SHT30;64736;50.462;4.850;2022-11-04T04:45:32;9.99;86.39
76040;SHT30;64736;50.462;4.850;2022-11-04T04:47:59;10.04;87.86
76040;SHT30;64736;50.462;4.850;2022-11-04T04:50:30;10.01;88.81
76040;SHT30;64736;50.462;4.850;2022-11-04T04:53:00;9.91;88.62
76040;SHT30;64736;50.462;4.850;2022-11-04T04:55:29;9.83;89.25
76040;SHT30;64736;50.462;4.850;2022-11-04T04:57:56;9.74;88.80
76040;SHT30;64736;50.462;4.850;2022-11-04T05:00:23;9.74;89.97
76040;SHT30;64736;50.462;4.850;2022-11-04T05:02:49;9.74;90.22
76040;SHT30;64736;50.462;4.850;2022-11-04T05:05:15;9.76;90.31
76040;SHT30;64736;50.462;4.850;2022-11-04T05:07:41;9.76;89.93
76040;SHT30;64736;50.462;4.850;2022-11-04T05:10:09;9.78;90.01
76040;SHT30;64736;50.462;4.850;2022-11-04T05:12:36;9.73;90.52
76040;SHT30;64736;50.462;4.850;2022-11-04T05:15:20;9.80;89.62
76040;SHT30;64736;50.462;4.850;2022-11-04T05:17:46;9.69;89.78
76040;SHT30;64736;50.462;4.850;2022-11-04T05:20:12;9.50;91.72
76040;SHT30;64736;50.462;4.850;2022-11-04T05:22:39;9.47;90.68
76040;SHT30;64736;50.462;4.850;2022-11-04T05:25:05;9.80;89.27
76040;SHT30;64736;50.462;4.850;2022-11-04T05:27:30;9.78;89.77
76040;SHT30;64736;50.462;4.850;2022-11-04T05:29:56;9.90;88.94
76040;SHT30;64736;50.462;4.850;2022-11-04T05:32:22;9.91;89.01
76040;SHT30;64736;50.462;4.850;2022-11-04T05:34:47;9.84;89.78
76040;SHT30;64736;50.462;4.850;2022-11-04T05:37:13;9.70;90.16
76040;SHT30;64736;50.462;4.850;2022-11-04T05:39:39;9.88;89.87
76040;SHT30;64736;50.462;4.850;2022-11-04T05:42:04;9.94;90.09
76040;SHT30;64736;50.462;4.850;2022-11-04T05:44:30;9.64;91.27
76040;SHT30;64736;50.462;4.850;2022-11-04T05:46:56;9.85;90.65
76040;SHT30;64736;50.462;4.850;2022-11-04T05:49:22;9.84;89.57
76040;SHT30;64736;50.462;4.850;2022-11-04T05:51:48;9.87;90.39
76040;SHT30;64736;50.462;4.850;2022-11-04T05:54:13;9.85;90.57
76040;SHT30;64736;50.462;4.850;2022-11-04T05:56:39;9.73;90.57
76040;SHT30;64736;50.462;4.850;2022-11-04T05:59:05;9.94;89.60
76040;SHT30;64736;50.462;4.850;2022-11-04T06:01:33;9.77;90.01
76040;SHT30;64736;50.462;4.850;2022-11-04T06:03:59;9.78;90.19
76040;SHT30;64736;50.462;4.850;2022-11-04T06:06:28;9.69;90.53
76040;SHT30;64736;50.462;4.850;2022-11-04T06:08:54;9.74;90.94
76040;SHT30;64736;50.462;4.850;2022-11-04T06:11:21;9.63;90.04
76040;SHT30;64736;50.462;4.850;2022-11-04T06:13:48;9.60;90.80
76040;SHT30;64736;50.462;4.850;2022-11-04T06:16:13;9.76;90.44
76040;SHT30;64736;50.462;4.850;2022-11-04T06:18:39;9.61;90.86
76040;SHT30;64736;50.462;4.850;2022-11-04T06:21:19;9.67;90.22
76040;SHT30;64736;50.462;4.850;2022-11-04T06:23:47;9.71;91.41
76040;SHT30;64736;50.462;4.850;2022-11-04T06:26:14;9.70;91.24
76040;SHT30;64736;50.462;4.850;2022-11-04T06:28:40;9.67;89.96
76040;SHT30;64736;50.462;4.850;2022-11-04T06:31:07;9.71;91.37
76040;SHT30;64736;50.462;4.850;2022-11-04T06:33:33;9.64;92.08
76040;SHT30;64736;50.462;4.850;2022-11-04T06:36:00;9.56;92.17
76040;SHT30;64736;50.462;4.850;2022-11-04T06:38:31;9.60;92.10
76040;SHT30;64736;50.462;4.850;2022-11-04T06:40:57;9.46;92.91
76040;SHT30;64736;50.462;4.850;2022-11-04T06:43:24;9.48;93.74
76040;SHT30;64736;50.462;4.850;2022-11-04T06:45:59;9.56;93.15
76040;SHT30;64736;50.462;4.850;2022-11-04T06:48:26;9.42;93.71
76040;SHT30;64736;50.462;4.850;2022-11-04T06:50:52;9.46;93.25
76040;SHT30;64736;50.462;4.850;2022-11-04T06:53:18;9.39;93.86
76040;SHT30;64736;50.462;4.850;2022-11-04T06:55:44;9.78;92.71
76040;SHT30;64736;50.462;4.850;2022-11-04T06:58:10;9.66;93.59
76040;SHT30;64736;50.462;4.850;2022-11-04T07:00:35;9.76;91.94
76040;SHT30;64736;50.462;4.850;2022-11-04T07:03:01;9.84;92.54
76040;SHT30;64736;50.462;4.850;2022-11-04T07:05:27;9.69;92.66
76040;SHT30;64736;50.462;4.850;2022-11-04T07:07:53;9.85;92.52
76040;SHT30;64736;50.462;4.850;2022-11-04T07:10:19;10.11;91.34
76040;SHT30;64736;50.462;4.850;2022-11-04T07:12:45;10.02;91.54
76040;SHT30;64736;50.462;4.850;2022-11-04T07:15:11;9.69;92.73
76040;SHT30;64736;50.462;4.850;2022-11-04T07:17:36;9.77;92.37
76040;SHT30;64736;50.462;4.850;2022-11-04T07:20:02;9.81;91.77
76040;SHT30;64736;50.462;4.850;2022-11-04T07:22:30;10.09;91.71
76040;SHT30;64736;50.462;4.850;2022-11-04T07:24:56;10.28;90.76
76040;SHT30;64736;50.462;4.850;2022-11-04T07:27:22;10.11;91.34
76040;SHT30;64736;50.462;4.850;2022-11-04T07:29:48;9.99;92.07
76040;SHT30;64736;50.462;4.850;2022-11-04T07:32:14;10.35;91.18
76040;SHT30;64736;50.462;4.850;2022-11-04T07:34:40;10.39;91.00
76040;SHT30;64736;50.462;4.850;2022-11-04T07:37:05;10.16;91.70
76040;SHT30;64736;50.462;4.850;2022-11-04T07:39:31;10.11;92.29
76040;SHT30;64736;50.462;4.850;2022-11-04T07:41:56;10.28;92.10
76040;SHT30;64736;50.462;4.850;2022-11-04T07:44:22;10.28;92.38
76040;SHT30;64736;50.462;4.850;2022-11-04T07:46:48;10.18;91.96
76040;SHT30;64736;50.462;4.850;2022-11-04T07:49:14;9.81;92.77
76040;SHT30;64736;50.462;4.850;2022-11-04T07:51:40;9.76;92.31
76040;SHT30;64736;50.462;4.850;2022-11-04T07:54:06;9.83;93.20
76040;SHT30;64736;50.462;4.850;2022-11-04T07:56:31;9.94;92.30
76040;SHT30;64736;50.462;4.850;2022-11-04T07:58:57;9.97;92.79
76040;SHT30;64736;50.462;4.850;2022-11-04T08:01:23;9.95;92.97
76040;SHT30;64736;50.462;4.850;2022-11-04T08:03:50;9.95;92.95
76040;SHT30;64736;50.462;4.850;2022-11-04T08:06:18;9.97;92.94
76040;SHT30;64736;50.462;4.850;2022-11-04T08:08:44;9.93;93.08
76040;SHT30;64736;50.462;4.850;2022-11-04T08:11:16;9.93;93.58
76040;SHT30;64736;50.462;4.850;2022-11-04T08:13:41;9.91;93.02
76040;SHT30;64736;50.462;4.850;2022-11-04T08:16:11;9.99;92.67
76040;SHT30;64736;50.462;4.850;2022-11-04T08:18:38;9.93;92.67
76040;SHT30;64736;50.462;4.850;2022-11-04T08:21:04;9.90;92.48
76040;SHT30;64736;50.462;4.850;2022-11-04T08:23:30;10.15;92.37
76040;SHT30;64736;50.462;4.850;2022-11-04T08:25:57;10.04;92.44
76040;SHT30;64736;50.462;4.850;2022-11-04T08:28:23;9.98;92.57
76040;SHT30;64736;50.462;4.850;2022-11-04T08:33:17;9.95;92.15
76040;SHT30;64736;50.462;4.850;2022-11-04T08:35:43;10.04;92.10
76040;SHT30;64736;50.462;4.850;2022-11-04T08:38:08;9.97;92.21
76040;SHT30;64736;50.462;4.850;2022-11-04T08:40:35;10.12;91.83
76040;SHT30;64736;50.462;4.850;2022-11-04T08:43:00;10.21;91.74
76040;SHT30;64736;50.462;4.850;2022-11-04T08:45:26;10.39;90.63
76040;SHT30;64736;50.462;4.850;2022-11-04T08:47:51;10.36;90.96
76040;SHT30;64736;50.462;4.850;2022-11-04T08:50:17;10.23;91.51
76040;SHT30;64736;50.462;4.850;2022-11-04T08:52:44;10.28;91.13
76040;SHT30;64736;50.462;4.850;2022-11-04T08:55:09;10.32;91.82
76040;SHT30;64736;50.462;4.850;2022-11-04T08:57:35;10.57;90.89
76040;SHT30;64736;50.462;4.850;2022-11-04T09:00:02;11.14;87.47
76040;SHT30;64736;50.462;4.850;2022-11-04T09:02:28;11.27;86.82
76040;SHT30;64736;50.462;4.850;2022-11-04T09:04:54;11.36;85.80
76040;SHT30;64736;50.462;4.850;2022-11-04T09:07:19;11.36;85.29
76040;SHT30;64736;50.462;4.850;2022-11-04T09:09:45;10.85;87.96
76040;SHT30;64736;50.462;4.850;2022-11-04T09:12:11;11.39;85.44
76040;SHT30;64736;50.462;4.850;2022-11-04T09:14:36;11.59;85.31
76040;SHT30;64736;50.462;4.850;2022-11-04T09:17:02;11.61;85.93
76040;SHT30;64736;50.462;4.850;2022-11-04T09:19:27;11.39;86.41
76040;SHT30;64736;50.462;4.850;2022-11-04T09:21:53;11.55;84.36
76040;SHT30;64736;50.462;4.850;2022-11-04T09:24:19;11.48;84.23
76040;SHT30;64736;50.462;4.850;2022-11-04T09:26:44;11.34;84.60
76040;SHT30;64736;50.462;4.850;2022-11-04T09:29:10;11.24;84.62
76040;SHT30;64736;50.462;4.850;2022-11-04T09:31:36;11.21;85.96
76040;SHT30;64736;50.462;4.850;2022-11-04T09:34:02;11.48;86.16
76040;SHT30;64736;50.462;4.850;2022-11-04T09:36:27;11.43;86.55
76040;SHT30;64736;50.462;4.850;2022-11-04T09:38:53;11.34;86.53
76040;SHT30;64736;50.462;4.850;2022-11-04T09:46:38;11.21;88.80
76040;SHT30;64736;50.462;4.850;2022-11-04T09:49:06;11.34;88.52
76040;SHT30;64736;50.462;4.850;2022-11-04T09:51:33;11.06;87.51
76040;SHT30;64736;50.462;4.850;2022-11-04T09:54:02;10.79;88.17
76040;SHT30;64736;50.462;4.850;2022-11-04T09:56:34;11.21;88.48
76040;SHT30;64736;50.462;4.850;2022-11-04T09:59:03;11.35;89.42
76040;SHT30;64736;50.462;4.850;2022-11-04T10:23:10;10.96;91.94
76040;SHT30;64736;50.462;4.850;2022-11-04T10:26:01;10.98;92.84
76040;SHT30;64736;50.462;4.850;2022-11-04T10:28:40;10.90;93.09
76040;SHT30;64736;50.462;4.850;2022-11-04T10:31:13;10.89;92.84
76040;SHT30;64736;50.462;4.850;2022-11-04T10:33:46;10.67;92.77
76040;SHT30;64736;50.462;4.850;2022-11-04T10:36:13;10.64;93.96
76040;SHT30;64736;50.462;4.850;2022-11-04T10:38:42;10.69;95.04
76040;SHT30;64736;50.462;4.850;2022-11-04T10:44:22;10.74;95.70
76040;SHT30;64736;50.462;4.850;2022-11-04T10:52:47;10.81;95.16
76040;SHT30;64736;50.462;4.850;2022-11-04T10:58:27;10.80;93.41
76040;SHT30;64736;50.462;4.850;2022-11-04T11:00:53;10.73;93.70
76040;SHT30;64736;50.462;4.850;2022-11-04T11:08:35;10.91;92.46
76040;SHT30;64736;50.462;4.850;2022-11-04T11:11:06;10.93;93.47
76040;SHT30;64736;50.462;4.850;2022-11-04T11:13:40;11.00;92.00
76040;SHT30;64736;50.462;4.850;2022-11-04T11:19:14;10.91;91.60
76040;SHT30;64736;50.462;4.850;2022-11-04T11:21:49;10.90;90.94
76040;SHT30;64736;50.462;4.850;2022-11-04T11:24:22;11.12;92.81
76040;SHT30;64736;50.462;4.850;2022-11-04T11:27:00;11.21;92.83
76040;SHT30;64736;50.462;4.850;2022-11-04T11:29:31;11.22;92.76
76040;SHT30;64736;50.462;4.850;2022-11-04T11:32:06;11.42;92.57
76040;SHT30;64736;50.462;4.850;2022-11-04T11:34:40;11.51;91.70
76040;SHT30;64736;50.462;4.850;2022-11-04T11:37:20;11.56;90.67
76040;SHT30;64736;50.462;4.850;2022-11-04T11:39:47;11.63;90.86
76040;SHT30;64736;50.462;4.850;2022-11-04T11:42:13;11.63;90.76
76040;SHT30;64736;50.462;4.850;2022-11-04T11:44:47;11.70;90.59
76040;SHT30;64736;50.462;4.850;2022-11-04T11:47:33;11.70;90.06
76040;SHT30;64736;50.462;4.850;2022-11-04T11:52:47;11.75;89.39
76040;SHT30;64736;50.462;4.850;2022-11-04T11:55:24;11.65;88.94
76040;SHT30;64736;50.462;4.850;2022-11-04T12:00:59;11.85;88.65
76040;SHT30;64736;50.462;4.850;2022-11-04T12:03:37;11.79;88.09
76040;SHT30;64736;50.462;4.850;2022-11-04T12:17:56;11.77;87.47
76040;SHT30;64736;50.462;4.850;2022-11-04T12:39:53;11.28;86.60
76040;SHT30;64736;50.462;4.850;2022-11-04T12:42:40;11.29;85.83
76040;SHT30;64736;50.462;4.850;2022-11-04T12:48:10;11.65;86.28
76040;SHT30;64736;50.462;4.850;2022-11-04T12:58:41;11.24;86.77
76040;SHT30;64736;50.462;4.850;2022-11-04T13:01:24;11.54;84.96
76040;SHT30;64736;50.462;4.850;2022-11-04T13:03:56;11.83;84.66
76040;SHT30;64736;50.462;4.850;2022-11-04T13:06:48;11.85;83.07
76040;SHT30;64736;50.462;4.850;2022-11-04T13:09:29;11.82;83.76
76040;SHT30;64736;50.462;4.850;2022-11-04T13:12:11;12.10;80.01
76040;SHT30;64736;50.462;4.850;2022-11-04T13:17:11;11.83;80.63
76040;SHT30;64736;50.462;4.850;2022-11-04T13:19:41;12.04;78.64
76040;SHT30;64736;50.462;4.850;2022-11-04T13:22:26;11.98;80.73
76040;SHT30;64736;50.462;4.850;2022-11-04T13:25:21;11.73;82.30
76040;SHT30;64736;50.462;4.850;2022-11-04T13:27:48;11.86;80.35
76040;SHT30;64736;50.462;4.850;2022-11-04T13:30:22;11.69;80.50
76040;SHT30;64736;50.462;4.850;2022-11-04T13:35:41;11.87;80.96
76040;SHT30;64736;50.462;4.850;2022-11-04T13:38:14;11.86;81.57
76040;SHT30;64736;50.462;4.850;2022-11-04T13:43:26;11.75;82.33
76040;SHT30;64736;50.462;4.850;2022-11-04T13:48:51;11.67;82.97
76040;SHT30;64736;50.462;4.850;2022-11-04T13:51:19;11.76;82.02
76040;SHT30;64736;50.462;4.850;2022-11-04T13:56:36;11.67;82.71
76040;SHT30;64736;50.462;4.850;2022-11-04T13:59:26;11.69;83.48
76040;SHT30;64736;50.462;4.850;2022-11-04T14:04:41;11.87;82.88
76040;SHT30;64736;50.462;4.850;2022-11-04T14:07:14;12.10;82.77
76040;SHT30;64736;50.462;4.850;2022-11-04T14:14:33;12.08;81.71
76040;SHT30;64736;50.462;4.850;2022-11-04T14:16:59;12.35;81.44
76040;SHT30;64736;50.462;4.850;2022-11-04T14:19:56;12.37;80.90
76040;SHT30;64736;50.462;4.850;2022-11-04T14:22:30;12.18;80.09
76040;SHT30;64736;50.462;4.850;2022-11-04T14:24:59;12.13;81.35
76040;SHT30;64736;50.462;4.850;2022-11-04T14:27:26;12.20;79.83
76040;SHT30;64736;50.462;4.850;2022-11-04T14:29:55;12.46;79.12
76040;SHT30;64736;50.462;4.850;2022-11-04T14:32:28;12.07;78.00
76040;SHT30;64736;50.462;4.850;2022-11-04T14:35:06;12.03;78.91
76040;SHT30;64736;50.462;4.850;2022-11-04T14:37:34;11.65;80.41
76040;SHT30;64736;50.462;4.850;2022-11-04T14:40:04;11.73;81.17
76040;SHT30;64736;50.462;4.850;2022-11-04T14:45:20;11.52;82.71
76040;SHT30;64736;50.462;4.850;2022-11-04T14:48:01;11.49;82.37
76040;SHT30;64736;50.462;4.850;2022-11-04T14:50:32;11.25;82.50
76040;SHT30;64736;50.462;4.850;2022-11-04T14:53:00;11.10;83.73
76040;SHT30;64736;50.462;4.850;2022-11-04T14:55:31;11.17;83.72
76040;SHT30;64736;50.462;4.850;2022-11-04T14:58:20;11.11;83.65
76040;SHT30;64736;50.462;4.850;2022-11-04T15:05:55;11.25;83.74
76040;SHT30;64736;50.462;4.850;2022-11-04T15:13:56;11.27;84.37
76040;SHT30;64736;50.462;4.850;2022-11-04T15:16:25;10.90;84.62
76040;SHT30;64736;50.462;4.850;2022-11-04T15:18:53;10.94;85.57
76040;SHT30;64736;50.462;4.850;2022-11-04T15:21:20;11.00;86.02
76040;SHT30;64736;50.462;4.850;2022-11-04T15:23:48;11.04;85.26
76040;SHT30;64736;50.462;4.850;2022-11-04T15:28:53;11.12;84.62
76040;SHT30;64736;50.462;4.850;2022-11-04T15:31:21;11.08;84.73
76040;SHT30;64736;50.462;4.850;2022-11-04T15:33:53;11.22;84.56
76040;SHT30;64736;50.462;4.850;2022-11-04T15:38:57;11.18;84.27
76040;SHT30;64736;50.462;4.850;2022-11-04T15:41:25;10.97;85.50
76040;SHT30;64736;50.462;4.850;2022-11-04T15:44:25;10.97;85.51
76040;SHT30;64736;50.462;4.850;2022-11-04T15:46:57;10.98;85.90
76040;SHT30;64736;50.462;4.850;2022-11-04T15:49:28;11.10;85.72
76040;SHT30;64736;50.462;4.850;2022-11-04T15:52:10;11.22;84.62
76040;SHT30;64736;50.462;4.850;2022-11-04T15:54:39;11.18;84.99
76040;SHT30;64736;50.462;4.850;2022-11-04T15:59:54;10.94;85.72
76040;SHT30;64736;50.462;4.850;2022-11-04T16:02:36;10.93;85.36
76040;SHT30;64736;50.462;4.850;2022-11-04T16:07:39;11.29;84.64
76040;SHT30;64736;50.462;4.850;2022-11-04T16:12:57;11.25;84.46
76040;SHT30;64736;50.462;4.850;2022-11-04T16:18:03;10.90;85.54
76040;SHT30;64736;50.462;4.850;2022-11-04T16:20:30;11.00;86.30
76040;SHT30;64736;50.462;4.850;2022-11-04T16:23:00;10.94;86.15
76040;SHT30;64736;50.462;4.850;2022-11-04T16:25:30;10.96;85.82
76040;SHT30;64736;50.462;4.850;2022-11-04T16:27:57;10.77;86.77
76040;SHT30;64736;50.462;4.850;2022-11-04T16:30:23;10.83;86.28
76040;SHT30;64736;50.462;4.850;2022-11-04T16:32:51;10.76;86.55
76040;SHT30;64736;50.462;4.850;2022-11-04T16:35:26;10.73;87.05
76040;SHT30;64736;50.462;4.850;2022-11-04T16:37:53;10.83;86.92
76040;SHT30;64736;50.462;4.850;2022-11-04T16:40:21;10.73;87.44
76040;SHT30;64736;50.462;4.850;2022-11-04T16:42:47;10.67;87.15
76040;SHT30;64736;50.462;4.850;2022-11-04T16:45:30;10.64;87.39
76040;SHT30;64736;50.462;4.850;2022-11-04T16:47:56;10.62;87.30
76040;SHT30;64736;50.462;4.850;2022-11-04T16:50:23;10.45;86.99
76040;SHT30;64736;50.462;4.850;2022-11-04T16:52:49;10.25;87.97
76040;SHT30;64736;50.462;4.850;2022-11-04T16:55:15;10.19;87.64
76040;SHT30;64736;50.462;4.850;2022-11-04T16:57:43;10.16;85.92
76040;SHT30;64736;50.462;4.850;2022-11-04T17:00:17;10.09;86.27
76040;SHT30;64736;50.462;4.850;2022-11-04T17:02:44;10.06;85.60
76040;SHT30;64736;50.462;4.850;2022-11-04T17:05:10;10.02;84.85
76040;SHT30;64736;50.462;4.850;2022-11-04T17:07:37;9.99;85.05
76040;SHT30;64736;50.462;4.850;2022-11-04T17:10:04;9.94;83.79
76040;SHT30;64736;50.462;4.850;2022-11-04T17:12:36;9.87;83.94
76040;SHT30;64736;50.462;4.850;2022-11-04T17:15:02;9.85;83.72
76040;SHT30;64736;50.462;4.850;2022-11-04T17:17:28;9.77;84.74
76040;SHT30;64736;50.462;4.850;2022-11-04T17:19:54;9.93;84.52
76040;SHT30;64736;50.462;4.850;2022-11-04T17:22:19;9.94;83.25
76040;SHT30;64736;50.462;4.850;2022-11-04T17:24:45;9.78;83.91
76040;SHT30;64736;50.462;4.850;2022-11-04T17:27:12;9.64;84.24
76040;SHT30;64736;50.462;4.850;2022-11-04T17:29:37;9.69;84.41
76040;SHT30;64736;50.462;4.850;2022-11-04T17:32:03;9.50;85.50
76040;SHT30;64736;50.462;4.850;2022-11-04T17:34:29;9.70;85.25
76040;SHT30;64736;50.462;4.850;2022-11-04T17:36:55;9.51;85.30
76040;SHT30;64736;50.462;4.850;2022-11-04T17:39:20;9.43;85.17
76040;SHT30;64736;50.462;4.850;2022-11-04T17:41:46;9.47;85.75
76040;SHT30;64736;50.462;4.850;2022-11-04T17:44:30;9.33;85.52
76040;SHT30;64736;50.462;4.850;2022-11-04T17:46:56;9.60;84.80
76040;SHT30;64736;50.462;4.850;2022-11-04T17:49:25;9.69;85.78
76040;SHT30;64736;50.462;4.850;2022-11-04T17:51:59;9.70;84.34
76040;SHT30;64736;50.462;4.850;2022-11-04T17:54:28;9.77;84.88
76040;SHT30;64736;50.462;4.850;2022-11-04T17:56:58;9.78;85.37
76040;SHT30;64736;50.462;4.850;2022-11-04T17:59:23;9.77;84.59
76040;SHT30;64736;50.462;4.850;2022-11-04T18:01:49;9.80;84.69
76040;SHT30;64736;50.462;4.850;2022-11-04T18:04:18;9.77;85.35
76040;SHT30;64736;50.462;4.850;2022-11-04T18:06:43;9.70;85.37
76040;SHT30;64736;50.462;4.850;2022-11-04T18:09:10;9.63;86.19
76040;SHT30;64736;50.462;4.850;2022-11-04T18:11:36;9.56;86.59
76040;SHT30;64736;50.462;4.850;2022-11-04T18:14:21;9.47;86.50
76040;SHT30;64736;50.462;4.850;2022-11-04T18:16:48;9.46;86.90
76040;SHT30;64736;50.462;4.850;2022-11-04T18:19:17;9.40;86.95
76040;SHT30;64736;50.462;4.850;2022-11-04T18:21:43;9.39;87.16
76040;SHT30;64736;50.462;4.850;2022-11-04T18:24:08;9.40;86.54
76040;SHT30;64736;50.462;4.850;2022-11-04T18:26:34;9.35;87.29
76040;SHT30;64736;50.462;4.850;2022-11-04T18:29:01;9.37;87.35
76040;SHT30;64736;50.462;4.850;2022-11-04T18:31:38;9.39;87.12
76040;SHT30;64736;50.462;4.850;2022-11-04T18:34:07;9.43;86.77
76040;SHT30;64736;50.462;4.850;2022-11-04T18:36:35;9.42;87.01
76040;SHT30;64736;50.462;4.850;2022-11-04T18:39:09;9.42;87.63
76040;SHT30;64736;50.462;4.850;2022-11-04T18:41:35;9.44;87.06
76040;SHT30;64736;50.462;4.850;2022-11-04T18:44:01;9.42;87.35
76040;SHT30;64736;50.462;4.850;2022-11-04T18:46:27;9.43;87.38
76040;SHT30;64736;50.462;4.850;2022-11-04T18:48:53;9.46;87.07
76040;SHT30;64736;50.462;4.850;2022-11-04T18:51:20;9.43;87.03
76040;SHT30;64736;50.462;4.850;2022-11-04T18:53:47;9.46;87.16
76040;SHT30;64736;50.462;4.850;2022-11-04T18:56:15;9.46;87.15
76040;SHT30;64736;50.462;4.850;2022-11-04T18:58:42;9.37;87.42
76040;SHT30;64736;50.462;4.850;2022-11-04T19:01:28;9.22;87.14
76040;SHT30;64736;50.462;4.850;2022-11-04T19:03:54;9.18;87.12